Dabob, Washington
Current Conditions -  °F | °C
As of 11:55 PM on Monday 20 Oct 2014 (Local Time) from KPWT Reporting Station
Overcast Overcast  
Wind Chill: 54°   Ceiling: 500
Heat Index: 54°   Visibility: 10mi
Dew Point: 54°   Wind: 10mph
Humidity: 100%   Direction: 180°S
Pressure: 29.82"   Gusts: NA
Location:  47.8412°N, 122.841°W
Report Text: KPWT 210655Z AUTO 18009KT 10SM BKN005 OVC013 12/12 A2982 RMK AO1 P0001
Loading
Personal Weather Stations






























Interactive Weather Map
Tropical Storm Tracking
New forecast layout! Learn more

10-Day Weather Forecast

Advertisements
Track Severe Weather on mobile